Cheboygan, MI

8:09 PM EST on February 10, 2016 (GMT -0500)
Cheboygan

Weather History for KSLH - August, 2013

Change the Weather History Date:

Wednesday, August 14, 2013

  Actual Average (KPLN) Record (KPLN)
Temperature  
Mean Temperature 58 °F -  
Max Temperature 69 °F 76 °F 95 °F (1965)
Min Temperature 48 °F 53 °F 36 °F (1961)
Degree Days  
Heating Degree Days 6    
Growing Degree Days 8 (Base 50)    
Moisture  
Dew Point 48 °F    
Average Humidity 69    
Maximum Humidity 93    
Minimum Humidity 44    
Precipitation  
Precipitation 0.00 in - - ()
Sea Level Pressure  
Sea Level Pressure 30.12 in    
Wind  
Wind Speed 8 mph (West)    
Max Wind Speed 15 mph    
Max Gust Speed 21 mph    
Visibility 10 miles    
Events      
Averages and records for this station are not official NWS values.
T = Trace of Precipitation, MM = Missing Value Source: NWS Daily Summary

Daily Weather History Graph

Daily Weather History Graph

Search for Another Location

Airport or City:

Trip Planner

Search our weather history database for the weather conditions in past years. The results will help you decide how hot, cold, wet, or windy it might be!

Date:

Astronomy

Aug. 14, 2013 Rise Set
Actual Time 6:37 AM EDT 8:47 PM EDT
Civil Twilight 6:04 AM EDT 9:19 PM EDT
Nautical Twilight 5:24 AM EDT 9:59 PM EDT
Astronomical Twilight 4:39 AM EDT 10:43 PM EDT
Moon 3:02 PM EDT (8/14) No Moon Set
Length of Visible Light 15h 14m
Length of Day
14h 09m
First Quarter, 52% of the Moon is Illuminated
Aug 14
First Quarter
Aug 20
Full
Aug 28
Last Quarter
Sep 5
New
Sep 12
First Quarter

Hourly Weather History & Observations

Time (EDT) Temp. Dew Point Humidity Pressure Visibility Wind Dir Wind Speed Gust Speed Precip Events Conditions
12:15 AM 55.8 °F 48.7 °F 77% 30.10 in 10.0 mi NW 10.4 mph - N/A   Mostly Cloudy
12:36 AM 54.5 °F 48.6 °F 80% 30.10 in 10.0 mi NW 6.9 mph - N/A   Scattered Clouds
12:55 AM 54.7 °F 48.4 °F 79% 30.10 in 10.0 mi NW 6.9 mph - N/A   Scattered Clouds
1:16 AM 53.6 °F 48.4 °F 82% 30.10 in 10.0 mi NW 6.9 mph - N/A   Clear
1:36 AM 53.4 °F 48.4 °F 83% 30.10 in 10.0 mi NW 6.9 mph - N/A   Clear
1:55 AM 52.3 °F 48.2 °F 86% 30.10 in 10.0 mi NW 5.8 mph - N/A   Scattered Clouds
2:16 AM 52.7 °F 48.6 °F 86% 30.10 in 10.0 mi WNW 4.6 mph - N/A   Scattered Clouds
2:36 AM 51.4 °F 48.2 °F 89% 30.10 in 10.0 mi WNW 5.8 mph - N/A   Clear
2:55 AM 51.3 °F 48.2 °F 89% 30.10 in 10.0 mi West 5.8 mph - N/A   Clear
3:16 AM 50.5 °F 47.5 °F 89% 30.10 in 10.0 mi West 4.6 mph - N/A   Clear
3:35 AM 50.0 °F 47.1 °F 90% 30.10 in 10.0 mi West 4.6 mph - N/A   Clear
3:56 AM 48.7 °F 46.4 °F 92% 30.10 in 10.0 mi West 5.8 mph - N/A   Clear
4:15 AM 49.1 °F 46.8 °F 92% 30.11 in 10.0 mi WNW 5.8 mph - N/A   Clear
4:35 AM 48.7 °F 46.6 °F 92% 30.11 in 10.0 mi West 5.8 mph - N/A   Clear
4:56 AM 48.9 °F 46.8 °F 92% 30.11 in 10.0 mi West 5.8 mph - N/A   Clear
5:15 AM 49.1 °F 46.9 °F 92% 30.11 in 10.0 mi West 5.8 mph - N/A   Clear
5:36 AM 49.1 °F 46.9 °F 92% 30.11 in 10.0 mi West 5.8 mph - N/A   Clear
5:56 AM 48.4 °F 46.4 °F 93% 30.12 in 10.0 mi West 5.8 mph - N/A   Clear
6:15 AM 49.1 °F 47.3 °F 93% 30.13 in 10.0 mi West 5.8 mph - N/A   Clear
6:36 AM 50.2 °F 48.0 °F 92% 30.13 in 10.0 mi West 6.9 mph - N/A   Clear
6:56 AM 50.0 °F 47.7 °F 92% 30.13 in 10.0 mi WNW 6.9 mph - N/A   Clear
7:15 AM 50.2 °F 47.8 °F 92% 30.13 in 10.0 mi West 4.6 mph - N/A   Clear
7:36 AM 52.0 °F 49.3 °F 90% 30.13 in 10.0 mi West 4.6 mph - N/A   Clear
7:56 AM 53.2 °F 49.8 °F 88% 30.14 in 10.0 mi West 4.6 mph - N/A   Clear
8:15 AM 54.9 °F 50.7 °F 86% 30.14 in 10.0 mi West 4.6 mph - N/A   Clear
8:36 AM 56.7 °F 51.8 °F 84% 30.15 in 10.0 mi WNW 6.9 mph - N/A   Clear
8:55 AM 57.9 °F 52.3 °F 82% 30.15 in 10.0 mi WNW 4.6 mph - N/A   Clear
9:16 AM 59.4 °F 52.2 °F 77% 30.15 in 10.0 mi WNW 10.4 mph - N/A   Clear
9:35 AM 59.9 °F 51.1 °F 73% 30.15 in 10.0 mi WNW 8.1 mph - N/A   Clear
9:55 AM 61.9 °F 50.7 °F 67% 30.15 in 10.0 mi NW 9.2 mph - N/A   Clear
10:16 AM 62.2 °F 49.1 °F 62% 30.15 in 10.0 mi NW 9.2 mph - N/A   Clear
10:36 AM 63.0 °F 49.1 °F 61% 30.15 in 10.0 mi NW 9.2 mph 16.1 mph N/A   Clear
10:55 AM 63.3 °F 48.9 °F 59% 30.15 in 10.0 mi WNW 5.8 mph - N/A   Scattered Clouds
11:16 AM 65.3 °F 46.8 °F 51% 30.15 in 10.0 mi WNW 13.8 mph 17.3 mph N/A   Scattered Clouds
11:36 AM 65.5 °F 46.9 °F 51% 30.15 in 10.0 mi WNW 15.0 mph 19.6 mph N/A   Clear
11:55 AM 65.8 °F 45.5 °F 48% 30.15 in 10.0 mi West 11.5 mph 17.3 mph N/A   Clear
12:16 PM 66.2 °F 44.6 °F 46% 30.15 in 10.0 mi WNW 11.5 mph 19.6 mph N/A   Clear
12:35 PM 66.6 °F 43.9 °F 44% 30.14 in 10.0 mi West 15.0 mph 19.6 mph N/A   Scattered Clouds
12:56 PM 66.6 °F 45.5 °F 47% 30.13 in 10.0 mi NW 13.8 mph 18.4 mph N/A   Scattered Clouds
1:15 PM 66.7 °F 44.8 °F 45% 30.13 in 10.0 mi WNW 13.8 mph 18.4 mph N/A   Scattered Clouds
1:36 PM 66.6 °F 45.7 °F 47% 30.13 in 10.0 mi WNW 13.8 mph 19.6 mph N/A   Mostly Cloudy
1:56 PM 66.2 °F 46.6 °F 49% 30.13 in 10.0 mi WNW 10.4 mph - N/A   Mostly Cloudy
2:15 PM 67.8 °F 47.8 °F 49% 30.12 in 10.0 mi West 9.2 mph 17.3 mph N/A   Mostly Cloudy
2:36 PM 69.1 °F 47.3 °F 46% 30.12 in 10.0 mi NW 13.8 mph 17.3 mph N/A   Mostly Cloudy
2:56 PM 68.0 °F 48.0 °F 49% 30.12 in 10.0 mi West 11.5 mph - N/A   Mostly Cloudy
3:55 PM 68.5 °F 47.1 °F 46% 30.11 in 10.0 mi West 13.8 mph 20.7 mph N/A   Scattered Clouds
4:16 PM 66.9 °F 48.0 °F 51% 30.11 in 10.0 mi West 10.4 mph - N/A   Mostly Cloudy
4:36 PM 65.5 °F 47.8 °F 53% 30.11 in 10.0 mi WNW 8.1 mph - N/A   Scattered Clouds
4:55 PM 67.6 °F 47.3 °F 48% 30.10 in 10.0 mi WNW 13.8 mph 17.3 mph N/A   Scattered Clouds
5:16 PM 69.3 °F 46.9 °F 45% 30.10 in 10.0 mi West 10.4 mph - N/A   Mostly Cloudy
5:35 PM 68.9 °F 46.9 °F 45% 30.10 in 10.0 mi West 11.5 mph 17.3 mph N/A   Mostly Cloudy
5:56 PM 67.6 °F 47.3 °F 48% 30.10 in 10.0 mi West 11.5 mph 16.1 mph N/A   Mostly Cloudy
6:15 PM 67.8 °F 47.5 °F 48% 30.10 in 10.0 mi West 12.7 mph 17.3 mph N/A   Scattered Clouds
6:35 PM 66.7 °F 47.8 °F 51% 30.10 in 10.0 mi West 12.7 mph 16.1 mph N/A   Scattered Clouds
6:56 PM 65.8 °F 46.9 °F 50% 30.10 in 10.0 mi West 11.5 mph - N/A   Clear
7:15 PM 65.3 °F 47.5 °F 52% 30.10 in 10.0 mi WSW 9.2 mph - N/A   Clear
7:36 PM 64.6 °F 47.3 °F 53% 30.10 in 10.0 mi West 9.2 mph - N/A   Clear
7:55 PM 64.0 °F 47.3 °F 54% 30.10 in 10.0 mi WSW 6.9 mph - N/A   Clear
8:16 PM 62.8 °F 48.6 °F 60% 30.10 in 10.0 mi WSW 8.1 mph - N/A   Clear
8:36 PM 61.7 °F 49.1 °F 63% 30.10 in 10.0 mi WSW 5.8 mph - N/A   Clear
8:56 PM 60.1 °F 49.1 °F 67% 30.10 in 10.0 mi WSW 6.9 mph - N/A   Clear
9:16 PM 58.3 °F 48.7 °F 71% 30.10 in 10.0 mi WSW 4.6 mph - N/A   Clear
9:35 PM 57.9 °F 48.9 °F 72% 30.10 in 10.0 mi WSW 5.8 mph - N/A   Clear
9:56 PM 57.0 °F 48.7 °F 74% 30.10 in 10.0 mi WSW 5.8 mph - N/A   Clear
10:15 PM 56.3 °F 48.9 °F 76% 30.10 in 10.0 mi WSW 5.8 mph - N/A   Clear
10:36 PM 55.8 °F 48.7 °F 77% 30.10 in 10.0 mi SW 5.8 mph - N/A   Clear
10:56 PM 55.4 °F 48.4 °F 77% 30.10 in 10.0 mi SW 5.8 mph - N/A   Clear
11:16 PM 54.9 °F 48.2 °F 78% 30.10 in 10.0 mi SW 4.6 mph - N/A   Clear
11:36 PM 54.0 °F 48.0 °F 80% 30.10 in 10.0 mi WSW 5.8 mph - N/A   Clear
11:55 PM 54.0 °F 48.2 °F 81% 30.10 in 10.0 mi SW 5.8 mph - N/A   Clear